Theta, North Carolina
Current Conditions -  °F | °C
As of 8:35 AM on Tuesday 21 Oct 2014 (Local Time) from KGEV Reporting Station
Overcast Overcast  
Wind Chill: 51°   Ceiling: 1700
Heat Index: 51°   Visibility: 10mi
Dew Point: 42°   Wind: 13mph
Humidity: 72%   Direction: 270°W
Pressure: 29.96"   Gusts: 16mph
Location:  36.4009°N, 81.4072°W
Report Text: KGEV 211235Z AUTO 27011G14KT 10SM BKN017 OVC027 11/06 A2996 RMK AO2 T01060058
Loading
Personal Weather Stations






























Interactive Weather Map
Tropical Storm Tracking
New forecast layout! Learn more

10-Day Weather Forecast

Advertisements
Track Severe Weather on mobile